sensor_id;sensor_type;location;lat;lon;timestamp;pressure;altitude;pressure_sealevel;temperature;humidity
78613;BME280;67933;51.060;3.638;2023-06-26T00:00:46;101549.78;;;20.10;62.84
78613;BME280;67933;51.060;3.638;2023-06-26T00:03:13;101536.44;;;20.09;62.64
78613;BME280;67933;51.060;3.638;2023-06-26T00:05:41;101539.25;;;20.07;62.90
78613;BME280;67933;51.060;3.638;2023-06-26T00:08:07;101536.78;;;19.94;63.41
78613;BME280;67933;51.060;3.638;2023-06-26T00:10:32;101539.16;;;19.88;63.17
78613;BME280;67933;51.060;3.638;2023-06-26T00:12:59;101535.28;;;19.81;63.52
78613;BME280;67933;51.060;3.638;2023-06-26T00:15:25;101543.84;;;19.75;64.15
78613;BME280;67933;51.060;3.638;2023-06-26T00:17:50;101542.41;;;19.71;64.06
78613;BME280;67933;51.060;3.638;2023-06-26T00:20:16;101552.00;;;19.64;64.48
78613;BME280;67933;51.060;3.638;2023-06-26T00:22:42;101552.75;;;19.54;65.35
78613;BME280;67933;51.060;3.638;2023-06-26T00:25:07;101551.06;;;19.53;65.04
78613;BME280;67933;51.060;3.638;2023-06-26T00:27:33;101559.00;;;19.55;65.40
78613;BME280;67933;51.060;3.638;2023-06-26T00:29:58;101553.63;;;19.55;65.56
78613;BME280;67933;51.060;3.638;2023-06-26T00:32:24;101560.09;;;19.52;66.07
78613;BME280;67933;51.060;3.638;2023-06-26T00:34:49;101565.25;;;19.55;66.03
78613;BME280;67933;51.060;3.638;2023-06-26T00:37:15;101565.69;;;19.60;66.32
78613;BME280;67933;51.060;3.638;2023-06-26T00:39:40;101566.44;;;19.63;66.45
78613;BME280;67933;51.060;3.638;2023-06-26T00:42:06;101570.09;;;19.62;66.71
78613;BME280;67933;51.060;3.638;2023-06-26T00:44:31;101570.59;;;19.67;66.94
78613;BME280;67933;51.060;3.638;2023-06-26T00:46:57;101559.94;;;19.65;67.53
78613;BME280;67933;51.060;3.638;2023-06-26T00:49:23;101558.81;;;19.68;67.42
78613;BME280;67933;51.060;3.638;2023-06-26T00:51:48;101568.16;;;19.64;67.88
78613;BME280;67933;51.060;3.638;2023-06-26T00:54:14;101563.28;;;19.57;68.48
78613;BME280;67933;51.060;3.638;2023-06-26T00:56:45;101576.34;;;19.62;68.67
78613;BME280;67933;51.060;3.638;2023-06-26T00:59:10;101577.09;;;19.64;68.71
78613;BME280;67933;51.060;3.638;2023-06-26T01:01:36;101574.13;;;19.67;69.19
78613;BME280;67933;51.060;3.638;2023-06-26T01:04:01;101578.16;;;19.73;68.93
78613;BME280;67933;51.060;3.638;2023-06-26T01:06:28;101572.75;;;19.73;69.08
78613;BME280;67933;51.060;3.638;2023-06-26T01:08:57;101562.03;;;19.62;69.59
78613;BME280;67933;51.060;3.638;2023-06-26T01:11:23;101568.78;;;19.56;70.36
78613;BME280;67933;51.060;3.638;2023-06-26T01:13:50;101571.59;;;19.54;70.45
78613;BME280;67933;51.060;3.638;2023-06-26T01:16:16;101565.63;;;19.40;71.20
78613;BME280;67933;51.060;3.638;2023-06-26T01:18:45;101571.19;;;19.27;72.12
78613;BME280;67933;51.060;3.638;2023-06-26T01:21:13;101564.00;;;19.16;72.71
78613;BME280;67933;51.060;3.638;2023-06-26T01:26:26;101581.38;;;19.01;73.83
78613;BME280;67933;51.060;3.638;2023-06-26T01:28:53;101580.69;;;18.88;74.60
78613;BME280;67933;51.060;3.638;2023-06-26T01:31:21;101582.00;;;18.82;75.30
78613;BME280;67933;51.060;3.638;2023-06-26T01:33:47;101595.84;;;18.78;75.58
78613;BME280;67933;51.060;3.638;2023-06-26T01:36:12;101590.09;;;18.71;75.95
78613;BME280;67933;51.060;3.638;2023-06-26T01:38:38;101596.81;;;18.66;76.32
78613;BME280;67933;51.060;3.638;2023-06-26T01:41:04;101597.41;;;18.69;76.78
78613;BME280;67933;51.060;3.638;2023-06-26T01:46:23;101601.94;;;18.69;77.41
78613;BME280;67933;51.060;3.638;2023-06-26T01:49:01;101603.66;;;18.70;77.14
78613;BME280;67933;51.060;3.638;2023-06-26T01:51:32;101606.72;;;18.65;77.32
78613;BME280;67933;51.060;3.638;2023-06-26T01:54:00;101610.88;;;18.58;77.57
78613;BME280;67933;51.060;3.638;2023-06-26T01:56:28;101610.06;;;18.45;78.72
78613;BME280;67933;51.060;3.638;2023-06-26T01:58:54;101617.66;;;18.40;79.11
78613;BME280;67933;51.060;3.638;2023-06-26T02:01:21;101621.53;;;18.36;79.35
78613;BME280;67933;51.060;3.638;2023-06-26T02:03:47;101623.94;;;18.28;79.85
78613;BME280;67933;51.060;3.638;2023-06-26T02:06:12;101627.22;;;18.20;80.25
78613;BME280;67933;51.060;3.638;2023-06-26T02:08:38;101630.06;;;18.19;80.60
78613;BME280;67933;51.060;3.638;2023-06-26T02:11:03;101630.41;;;18.14;80.97
78613;BME280;67933;51.060;3.638;2023-06-26T02:13:29;101633.94;;;18.03;81.39
78613;BME280;67933;51.060;3.638;2023-06-26T02:15:54;101637.31;;;17.94;81.99
78613;BME280;67933;51.060;3.638;2023-06-26T02:18:20;101638.59;;;17.89;81.64
78613;BME280;67933;51.060;3.638;2023-06-26T02:20:48;101627.47;;;17.82;82.06
78613;BME280;67933;51.060;3.638;2023-06-26T02:23:16;101636.00;;;17.76;82.69
78613;BME280;67933;51.060;3.638;2023-06-26T02:25:41;101637.94;;;17.74;82.54
78613;BME280;67933;51.060;3.638;2023-06-26T02:28:07;101647.41;;;17.67;83.00
78613;BME280;67933;51.060;3.638;2023-06-26T02:30:32;101654.00;;;17.63;83.17
78613;BME280;67933;51.060;3.638;2023-06-26T02:32:58;101648.63;;;17.63;83.07
78613;BME280;67933;51.060;3.638;2023-06-26T02:35:23;101653.44;;;17.58;83.39
78613;BME280;67933;51.060;3.638;2023-06-26T02:37:48;101658.69;;;17.59;83.90
78613;BME280;67933;51.060;3.638;2023-06-26T02:40:14;101655.28;;;17.57;83.21
78613;BME280;67933;51.060;3.638;2023-06-26T02:42:39;101654.13;;;17.49;84.02
78613;BME280;67933;51.060;3.638;2023-06-26T02:45:05;101657.03;;;17.46;83.81
78613;BME280;67933;51.060;3.638;2023-06-26T02:47:30;101657.59;;;17.38;84.59
78613;BME280;67933;51.060;3.638;2023-06-26T02:49:56;101650.84;;;17.33;84.10
78613;BME280;67933;51.060;3.638;2023-06-26T02:52:21;101664.72;;;17.26;84.33
78613;BME280;67933;51.060;3.638;2023-06-26T02:54:46;101663.97;;;17.24;84.26
78613;BME280;67933;51.060;3.638;2023-06-26T02:57:12;101665.88;;;17.22;84.48
78613;BME280;67933;51.060;3.638;2023-06-26T02:59:39;101673.63;;;17.14;85.00
78613;BME280;67933;51.060;3.638;2023-06-26T03:02:05;101670.63;;;17.06;85.36
78613;BME280;67933;51.060;3.638;2023-06-26T03:04:30;101671.09;;;17.00;85.01
78613;BME280;67933;51.060;3.638;2023-06-26T03:06:56;101680.53;;;16.93;85.47
78613;BME280;67933;51.060;3.638;2023-06-26T03:09:21;101678.28;;;16.87;85.20
78613;BME280;67933;51.060;3.638;2023-06-26T03:11:47;101683.97;;;16.82;85.81
78613;BME280;67933;51.060;3.638;2023-06-26T03:14:12;101688.69;;;16.79;85.66
78613;BME280;67933;51.060;3.638;2023-06-26T03:16:38;101691.47;;;16.77;85.25
78613;BME280;67933;51.060;3.638;2023-06-26T03:19:03;101686.94;;;16.65;85.88
78613;BME280;67933;51.060;3.638;2023-06-26T03:21:29;101685.63;;;16.58;85.90
78613;BME280;67933;51.060;3.638;2023-06-26T03:23:55;101693.25;;;16.51;86.20
78613;BME280;67933;51.060;3.638;2023-06-26T03:26:20;101697.09;;;16.47;86.49
78613;BME280;67933;51.060;3.638;2023-06-26T03:28:54;101700.84;;;16.45;86.13
78613;BME280;67933;51.060;3.638;2023-06-26T03:31:20;101693.53;;;16.34;86.75
78613;BME280;67933;51.060;3.638;2023-06-26T03:33:46;101692.91;;;16.31;86.66
78613;BME280;67933;51.060;3.638;2023-06-26T03:36:12;101700.41;;;16.26;87.09
78613;BME280;67933;51.060;3.638;2023-06-26T03:38:37;101704.31;;;16.20;87.29
78613;BME280;67933;51.060;3.638;2023-06-26T03:41:03;101705.94;;;16.23;86.97
78613;BME280;67933;51.060;3.638;2023-06-26T03:43:28;101704.66;;;16.15;87.30
78613;BME280;67933;51.060;3.638;2023-06-26T03:45:54;101710.19;;;16.12;86.66
78613;BME280;67933;51.060;3.638;2023-06-26T03:48:20;101709.75;;;16.06;87.47
78613;BME280;67933;51.060;3.638;2023-06-26T03:50:45;101715.09;;;16.06;87.12
78613;BME280;67933;51.060;3.638;2023-06-26T03:53:10;101717.97;;;16.03;87.25
78613;BME280;67933;51.060;3.638;2023-06-26T03:55:37;101718.97;;;16.02;86.94
78613;BME280;67933;51.060;3.638;2023-06-26T03:58:04;101727.28;;;15.97;87.17
78613;BME280;67933;51.060;3.638;2023-06-26T04:00:29;101732.72;;;15.96;86.68
78613;BME280;67933;51.060;3.638;2023-06-26T04:02:54;101737.34;;;15.94;86.87
78613;BME280;67933;51.060;3.638;2023-06-26T04:05:20;101726.06;;;15.89;86.42
78613;BME280;67933;51.060;3.638;2023-06-26T04:07:45;101742.44;;;15.84;87.39
78613;BME280;67933;51.060;3.638;2023-06-26T04:10:14;101752.47;;;15.81;87.31
78613;BME280;67933;51.060;3.638;2023-06-26T04:12:39;101749.59;;;15.84;87.20
78613;BME280;67933;51.060;3.638;2023-06-26T04:15:05;101752.09;;;15.87;86.30
78613;BME280;67933;51.060;3.638;2023-06-26T04:17:31;101753.59;;;15.91;85.92
78613;BME280;67933;51.060;3.638;2023-06-26T04:19:56;101748.34;;;15.89;85.86
78613;BME280;67933;51.060;3.638;2023-06-26T04:22:21;101747.59;;;15.87;85.95
78613;BME280;67933;51.060;3.638;2023-06-26T04:24:47;101744.78;;;15.89;85.66
78613;BME280;67933;51.060;3.638;2023-06-26T04:27:12;101746.50;;;15.90;85.15
78613;BME280;67933;51.060;3.638;2023-06-26T04:29:39;101758.06;;;15.90;85.23
78613;BME280;67933;51.060;3.638;2023-06-26T04:32:04;101760.97;;;15.87;85.14
78613;BME280;67933;51.060;3.638;2023-06-26T04:34:30;101754.25;;;15.94;84.64
78613;BME280;67933;51.060;3.638;2023-06-26T04:36:59;101764.66;;;15.99;84.33
78613;BME280;67933;51.060;3.638;2023-06-26T04:39:25;101771.31;;;16.06;83.91
78613;BME280;67933;51.060;3.638;2023-06-26T04:41:50;101766.50;;;16.11;83.48
78613;BME280;67933;51.060;3.638;2023-06-26T04:44:16;101771.66;;;16.14;83.33
78613;BME280;67933;51.060;3.638;2023-06-26T04:46:41;101774.88;;;16.19;82.34
78613;BME280;67933;51.060;3.638;2023-06-26T04:49:08;101778.16;;;16.24;82.20
78613;BME280;67933;51.060;3.638;2023-06-26T04:51:34;101772.56;;;16.27;82.10
78613;BME280;67933;51.060;3.638;2023-06-26T04:54:06;101779.22;;;16.34;81.17
78613;BME280;67933;51.060;3.638;2023-06-26T04:56:32;101779.91;;;16.38;80.26
78613;BME280;67933;51.060;3.638;2023-06-26T04:58:57;101792.34;;;16.39;80.64
78613;BME280;67933;51.060;3.638;2023-06-26T05:01:22;101795.09;;;16.37;80.91
78613;BME280;67933;51.060;3.638;2023-06-26T05:03:48;101800.47;;;16.37;80.55
78613;BME280;67933;51.060;3.638;2023-06-26T05:06:13;101808.19;;;16.42;80.44
78613;BME280;67933;51.060;3.638;2023-06-26T05:08:39;101807.22;;;16.43;80.30
78613;BME280;67933;51.060;3.638;2023-06-26T05:11:04;101814.66;;;16.52;78.71
78613;BME280;67933;51.060;3.638;2023-06-26T05:13:29;101809.97;;;16.55;78.57
78613;BME280;67933;51.060;3.638;2023-06-26T05:15:55;101810.59;;;16.59;79.50
78613;BME280;67933;51.060;3.638;2023-06-26T05:18:20;101813.34;;;16.72;78.58
78613;BME280;67933;51.060;3.638;2023-06-26T05:20:46;101814.41;;;16.69;78.10
78613;BME280;67933;51.060;3.638;2023-06-26T05:23:12;101817.94;;;16.70;78.21
78613;BME280;67933;51.060;3.638;2023-06-26T05:25:38;101824.94;;;16.85;78.21
78613;BME280;67933;51.060;3.638;2023-06-26T05:28:04;101829.34;;;16.86;78.14
78613;BME280;67933;51.060;3.638;2023-06-26T05:30:35;101833.63;;;16.88;77.33
78613;BME280;67933;51.060;3.638;2023-06-26T05:33:02;101825.47;;;16.90;76.49
78613;BME280;67933;51.060;3.638;2023-06-26T05:35:29;101826.56;;;17.00;77.13
78613;BME280;67933;51.060;3.638;2023-06-26T05:37:55;101823.69;;;17.03;76.62
78613;BME280;67933;51.060;3.638;2023-06-26T05:40:21;101826.91;;;17.08;76.50
78613;BME280;67933;51.060;3.638;2023-06-26T05:42:47;101827.13;;;17.18;77.00
78613;BME280;67933;51.060;3.638;2023-06-26T05:45:12;101824.78;;;17.26;75.77
78613;BME280;67933;51.060;3.638;2023-06-26T05:47:38;101827.88;;;17.33;75.41
78613;BME280;67933;51.060;3.638;2023-06-26T05:50:04;101821.88;;;17.42;75.38
78613;BME280;67933;51.060;3.638;2023-06-26T05:52:29;101838.06;;;17.53;75.27
78613;BME280;67933;51.060;3.638;2023-06-26T05:54:56;101837.00;;;17.55;74.63
78613;BME280;67933;51.060;3.638;2023-06-26T05:57:28;101835.50;;;17.64;74.46
78613;BME280;67933;51.060;3.638;2023-06-26T05:59:54;101851.06;;;17.72;74.39
78613;BME280;67933;51.060;3.638;2023-06-26T06:02:20;101844.72;;;17.73;73.95
78613;BME280;67933;51.060;3.638;2023-06-26T06:04:46;101843.44;;;17.78;73.11
78613;BME280;67933;51.060;3.638;2023-06-26T06:07:12;101847.59;;;17.82;73.10
78613;BME280;67933;51.060;3.638;2023-06-26T06:09:37;101858.44;;;17.93;73.43
78613;BME280;67933;51.060;3.638;2023-06-26T06:12:04;101857.22;;;17.97;73.48
78613;BME280;67933;51.060;3.638;2023-06-26T06:14:33;101856.97;;;18.13;73.30
78613;BME280;67933;51.060;3.638;2023-06-26T06:16:58;101871.34;;;18.25;72.28
78613;BME280;67933;51.060;3.638;2023-06-26T06:19:23;101870.53;;;18.35;70.87
78613;BME280;67933;51.060;3.638;2023-06-26T06:21:49;101899.53;;;18.43;70.48
78613;BME280;67933;51.060;3.638;2023-06-26T06:24:14;101892.47;;;18.42;70.02
78613;BME280;67933;51.060;3.638;2023-06-26T06:26:40;101881.22;;;18.61;69.30
78613;BME280;67933;51.060;3.638;2023-06-26T06:29:05;101890.06;;;18.74;68.33
78613;BME280;67933;51.060;3.638;2023-06-26T06:31:31;101884.00;;;18.83;68.42
78613;BME280;67933;51.060;3.638;2023-06-26T06:33:56;101888.69;;;18.92;67.61
78613;BME280;67933;51.060;3.638;2023-06-26T06:36:22;101888.75;;;19.60;66.63
78613;BME280;67933;51.060;3.638;2023-06-26T06:38:47;101892.88;;;20.31;62.66
78613;BME280;67933;51.060;3.638;2023-06-26T06:41:13;101898.25;;;20.86;60.99
78613;BME280;67933;51.060;3.638;2023-06-26T06:43:39;101904.16;;;21.11;58.83
78613;BME280;67933;51.060;3.638;2023-06-26T06:46:04;101893.91;;;21.47;56.87
78613;BME280;67933;51.060;3.638;2023-06-26T06:48:31;101902.66;;;21.39;57.41
78613;BME280;67933;51.060;3.638;2023-06-26T06:50:56;101912.16;;;22.15;55.75
78613;BME280;67933;51.060;3.638;2023-06-26T06:53:21;101916.84;;;22.73;53.57
78613;BME280;67933;51.060;3.638;2023-06-26T06:55:48;101905.06;;;22.24;53.08
78613;BME280;67933;51.060;3.638;2023-06-26T06:58:14;101919.22;;;21.76;55.17
78613;BME280;67933;51.060;3.638;2023-06-26T07:00:39;101929.00;;;22.29;54.59
78613;BME280;67933;51.060;3.638;2023-06-26T07:03:04;101920.16;;;22.26;54.97
78613;BME280;67933;51.060;3.638;2023-06-26T07:05:30;101920.25;;;22.65;51.26
78613;BME280;67933;51.060;3.638;2023-06-26T07:07:55;101927.41;;;23.33;49.87
78613;BME280;67933;51.060;3.638;2023-06-26T07:10:21;101919.13;;;23.35;50.48
78613;BME280;67933;51.060;3.638;2023-06-26T07:12:46;101918.97;;;24.02;49.76
78613;BME280;67933;51.060;3.638;2023-06-26T07:15:12;101924.22;;;23.76;48.10
78613;BME280;67933;51.060;3.638;2023-06-26T07:17:37;101926.22;;;23.74;48.25
78613;BME280;67933;51.060;3.638;2023-06-26T07:20:06;101915.78;;;23.79;47.84
78613;BME280;67933;51.060;3.638;2023-06-26T07:22:32;101918.16;;;23.92;47.41
78613;BME280;67933;51.060;3.638;2023-06-26T07:24:58;101925.56;;;24.72;46.27
78613;BME280;67933;51.060;3.638;2023-06-26T07:27:23;101936.59;;;24.53;45.26
78613;BME280;67933;51.060;3.638;2023-06-26T07:29:48;101928.19;;;24.46;45.60
78613;BME280;67933;51.060;3.638;2023-06-26T07:32:14;101928.34;;;24.63;43.31
78613;BME280;67933;51.060;3.638;2023-06-26T07:34:39;101923.44;;;24.93;43.46
78613;BME280;67933;51.060;3.638;2023-06-26T07:37:05;101921.50;;;25.21;42.70
78613;BME280;67933;51.060;3.638;2023-06-26T07:39:30;101928.44;;;25.59;42.87
78613;BME280;67933;51.060;3.638;2023-06-26T07:41:56;101938.50;;;24.43;44.68
78613;BME280;67933;51.060;3.638;2023-06-26T07:44:23;101931.13;;;25.16;44.28
78613;BME280;67933;51.060;3.638;2023-06-26T07:46:48;101944.72;;;23.79;45.63
78613;BME280;67933;51.060;3.638;2023-06-26T07:49:14;101961.06;;;23.21;46.05
78613;BME280;67933;51.060;3.638;2023-06-26T07:51:39;101950.13;;;23.89;44.54
78613;BME280;67933;51.060;3.638;2023-06-26T07:54:05;101958.13;;;24.17;44.84
78613;BME280;67933;51.060;3.638;2023-06-26T07:56:30;101948.56;;;23.86;45.12
78613;BME280;67933;51.060;3.638;2023-06-26T07:58:56;101953.47;;;24.65;43.39
78613;BME280;67933;51.060;3.638;2023-06-26T08:01:24;101952.16;;;25.75;41.25
78613;BME280;67933;51.060;3.638;2023-06-26T08:03:49;101949.09;;;26.38;39.88
78613;BME280;67933;51.060;3.638;2023-06-26T08:06:15;101960.94;;;26.71;39.07
78613;BME280;67933;51.060;3.638;2023-06-26T08:08:40;101953.03;;;26.43;40.64
78613;BME280;67933;51.060;3.638;2023-06-26T08:11:06;101965.25;;;26.05;39.36
78613;BME280;67933;51.060;3.638;2023-06-26T08:13:31;101961.03;;;24.88;41.66
78613;BME280;67933;51.060;3.638;2023-06-26T08:15:56;101969.28;;;24.97;41.83
78613;BME280;67933;51.060;3.638;2023-06-26T08:18:22;101972.66;;;25.08;42.04
78613;BME280;67933;51.060;3.638;2023-06-26T08:20:47;101972.16;;;24.95;40.92
78613;BME280;67933;51.060;3.638;2023-06-26T08:23:13;101958.78;;;26.32;38.62
78613;BME280;67933;51.060;3.638;2023-06-26T08:25:38;101969.91;;;24.90;41.17
78613;BME280;67933;51.060;3.638;2023-06-26T08:28:04;101968.44;;;25.32;42.52
78613;BME280;67933;51.060;3.638;2023-06-26T08:30:29;101967.69;;;24.31;42.32
78613;BME280;67933;51.060;3.638;2023-06-26T08:32:58;101965.31;;;25.26;40.39
78613;BME280;67933;51.060;3.638;2023-06-26T08:35:23;101959.88;;;26.64;38.97
78613;BME280;67933;51.060;3.638;2023-06-26T08:37:49;101969.63;;;26.74;36.38
78613;BME280;67933;51.060;3.638;2023-06-26T08:40:17;101967.19;;;26.55;37.07
78613;BME280;67933;51.060;3.638;2023-06-26T08:42:46;101971.84;;;26.29;36.78
78613;BME280;67933;51.060;3.638;2023-06-26T08:45:13;101975.03;;;27.16;35.60
78613;BME280;67933;51.060;3.638;2023-06-26T08:47:40;101983.00;;;27.18;34.90
78613;BME280;67933;51.060;3.638;2023-06-26T08:50:13;101981.13;;;27.91;35.96
78613;BME280;67933;51.060;3.638;2023-06-26T08:53:00;101983.28;;;28.59;33.18
78613;BME280;67933;51.060;3.638;2023-06-26T08:55:31;101984.19;;;26.57;36.53
78613;BME280;67933;51.060;3.638;2023-06-26T08:57:58;102011.94;;;27.19;36.59
78613;BME280;67933;51.060;3.638;2023-06-26T09:00:24;102005.66;;;27.35;34.37
78613;BME280;67933;51.060;3.638;2023-06-26T09:02:50;101999.53;;;27.16;36.44
78613;BME280;67933;51.060;3.638;2023-06-26T09:05:15;101998.22;;;27.61;32.90
78613;BME280;67933;51.060;3.638;2023-06-26T09:07:40;102001.88;;;27.03;34.36
78613;BME280;67933;51.060;3.638;2023-06-26T09:10:07;101996.13;;;27.14;34.00
78613;BME280;67933;51.060;3.638;2023-06-26T09:12:33;102003.94;;;27.99;33.63
78613;BME280;67933;51.060;3.638;2023-06-26T09:14:59;101986.38;;;28.56;32.08
78613;BME280;67933;51.060;3.638;2023-06-26T09:17:38;101989.53;;;28.76;32.79
78613;BME280;67933;51.060;3.638;2023-06-26T09:20:05;101994.78;;;27.43;34.34
78613;BME280;67933;51.060;3.638;2023-06-26T09:22:34;101998.19;;;26.02;37.01
78613;BME280;67933;51.060;3.638;2023-06-26T09:25:01;101993.19;;;26.50;34.91
78613;BME280;67933;51.060;3.638;2023-06-26T09:27:27;101995.06;;;26.99;36.00
78613;BME280;67933;51.060;3.638;2023-06-26T09:29:53;101998.94;;;26.89;35.26
78613;BME280;67933;51.060;3.638;2023-06-26T09:32:18;102003.09;;;25.55;36.07
78613;BME280;67933;51.060;3.638;2023-06-26T09:34:44;101998.16;;;27.20;33.50
78613;BME280;67933;51.060;3.638;2023-06-26T09:37:13;102020.69;;;25.87;34.94
78613;BME280;67933;51.060;3.638;2023-06-26T09:39:39;102017.19;;;25.68;36.11
78613;BME280;67933;51.060;3.638;2023-06-26T09:42:05;102023.03;;;27.34;33.02
78613;BME280;67933;51.060;3.638;2023-06-26T09:44:33;102027.19;;;25.50;36.29
78613;BME280;67933;51.060;3.638;2023-06-26T09:47:01;102041.75;;;27.12;35.21
78613;BME280;67933;51.060;3.638;2023-06-26T09:49:28;102038.59;;;26.15;36.46
78613;BME280;67933;51.060;3.638;2023-06-26T09:51:53;102036.66;;;25.82;38.20
78613;BME280;67933;51.060;3.638;2023-06-26T09:54:21;102036.00;;;27.24;33.62
78613;BME280;67933;51.060;3.638;2023-06-26T09:56:47;102040.44;;;28.69;30.51
78613;BME280;67933;51.060;3.638;2023-06-26T09:59:13;102035.84;;;26.15;35.63
78613;BME280;67933;51.060;3.638;2023-06-26T10:01:45;102045.44;;;25.76;35.69
78613;BME280;67933;51.060;3.638;2023-06-26T10:04:10;102039.38;;;27.09;34.98
78613;BME280;67933;51.060;3.638;2023-06-26T10:06:41;102047.78;;;27.56;33.68
78613;BME280;67933;51.060;3.638;2023-06-26T10:09:07;102039.91;;;28.10;30.99
78613;BME280;67933;51.060;3.638;2023-06-26T10:11:43;102031.41;;;27.32;32.12
78613;BME280;67933;51.060;3.638;2023-06-26T10:14:11;102041.13;;;25.91;33.80
78613;BME280;67933;51.060;3.638;2023-06-26T10:16:38;102042.03;;;25.20;34.72
78613;BME280;67933;51.060;3.638;2023-06-26T10:19:06;102041.09;;;26.34;33.33
78613;BME280;67933;51.060;3.638;2023-06-26T10:21:37;102043.88;;;27.67;31.65
78613;BME280;67933;51.060;3.638;2023-06-26T10:24:05;102043.34;;;28.59;29.30
78613;BME280;67933;51.060;3.638;2023-06-26T10:26:35;102037.88;;;29.75;30.49
78613;BME280;67933;51.060;3.638;2023-06-26T10:29:03;102030.72;;;30.26;26.77
78613;BME280;67933;51.060;3.638;2023-06-26T10:31:30;102034.22;;;30.64;26.55
78613;BME280;67933;51.060;3.638;2023-06-26T10:33:56;102036.69;;;31.10;26.86
78613;BME280;67933;51.060;3.638;2023-06-26T10:36:28;102025.47;;;29.87;27.78
78613;BME280;67933;51.060;3.638;2023-06-26T10:39:20;102035.69;;;29.70;26.99
78613;BME280;67933;51.060;3.638;2023-06-26T10:41:45;102045.88;;;28.14;30.37
78613;BME280;67933;51.060;3.638;2023-06-26T10:44:12;102036.56;;;28.55;29.64
78613;BME280;67933;51.060;3.638;2023-06-26T10:46:51;102042.16;;;29.01;29.25
78613;BME280;67933;51.060;3.638;2023-06-26T10:49:21;102047.75;;;28.68;27.95
78613;BME280;67933;51.060;3.638;2023-06-26T10:51:50;102053.34;;;28.36;28.69
78613;BME280;67933;51.060;3.638;2023-06-26T10:54:17;102056.13;;;26.89;29.66
78613;BME280;67933;51.060;3.638;2023-06-26T10:56:48;102061.69;;;26.71;30.23
78613;BME280;67933;51.060;3.638;2023-06-26T11:01:41;102077.72;;;29.92;27.36
78613;BME280;67933;51.060;3.638;2023-06-26T11:04:12;102068.47;;;30.31;25.91
78613;BME280;67933;51.060;3.638;2023-06-26T11:06:39;102071.25;;;29.93;26.56
78613;BME280;67933;51.060;3.638;2023-06-26T11:14:23;102066.59;;;30.60;27.96
78613;BME280;67933;51.060;3.638;2023-06-26T11:16:49;102071.63;;;30.57;25.30
78613;BME280;67933;51.060;3.638;2023-06-26T11:19:17;102073.88;;;30.39;25.17
78613;BME280;67933;51.060;3.638;2023-06-26T11:21:43;102074.03;;;31.11;24.48
78613;BME280;67933;51.060;3.638;2023-06-26T11:24:10;102068.59;;;30.81;23.82
78613;BME280;67933;51.060;3.638;2023-06-26T11:26:40;102068.25;;;31.20;25.32
78613;BME280;67933;51.060;3.638;2023-06-26T11:29:06;102070.28;;;31.33;23.85
78613;BME280;67933;51.060;3.638;2023-06-26T11:31:37;102062.94;;;31.19;22.38
78613;BME280;67933;51.060;3.638;2023-06-26T11:34:05;102068.03;;;31.86;23.19
78613;BME280;67933;51.060;3.638;2023-06-26T11:36:31;102063.25;;;30.06;22.82
78613;BME280;67933;51.060;3.638;2023-06-26T11:39:02;102074.31;;;28.44;24.68
78613;BME280;67933;51.060;3.638;2023-06-26T11:41:30;102088.69;;;28.13;25.65
78613;BME280;67933;51.060;3.638;2023-06-26T11:44:00;102076.38;;;29.20;25.44
78613;BME280;67933;51.060;3.638;2023-06-26T11:46:25;102074.81;;;29.25;26.16
78613;BME280;67933;51.060;3.638;2023-06-26T11:48:51;102079.47;;;29.48;26.38
78613;BME280;67933;51.060;3.638;2023-06-26T11:51:19;102091.56;;;29.22;26.57
78613;BME280;67933;51.060;3.638;2023-06-26T11:53:46;102078.25;;;29.19;24.87
78613;BME280;67933;51.060;3.638;2023-06-26T11:56:16;102080.94;;;29.27;25.15
78613;BME280;67933;51.060;3.638;2023-06-26T11:59:04;102092.63;;;27.54;27.63
78613;BME280;67933;51.060;3.638;2023-06-26T12:01:40;102096.22;;;26.19;30.66
78613;BME280;67933;51.060;3.638;2023-06-26T12:04:09;102104.13;;;26.48;30.64
78613;BME280;67933;51.060;3.638;2023-06-26T12:06:37;102102.19;;;26.74;28.84
78613;BME280;67933;51.060;3.638;2023-06-26T12:09:05;102089.03;;;28.73;27.50
78613;BME280;67933;51.060;3.638;2023-06-26T12:11:34;102095.13;;;29.00;26.93
78613;BME280;67933;51.060;3.638;2023-06-26T12:14:00;102105.00;;;26.56;30.59
78613;BME280;67933;51.060;3.638;2023-06-26T12:16:30;102103.09;;;25.61;32.17
78613;BME280;67933;51.060;3.638;2023-06-26T12:18:59;102099.59;;;27.81;32.16
78613;BME280;67933;51.060;3.638;2023-06-26T12:21:44;102074.09;;;29.31;25.42
78613;BME280;67933;51.060;3.638;2023-06-26T12:24:20;102087.53;;;28.79;27.01
78613;BME280;67933;51.060;3.638;2023-06-26T12:26:52;102106.53;;;28.56;26.05
78613;BME280;67933;51.060;3.638;2023-06-26T12:29:19;102100.72;;;28.59;25.97
78613;BME280;67933;51.060;3.638;2023-06-26T12:31:49;102101.47;;;26.64;29.84
78613;BME280;67933;51.060;3.638;2023-06-26T12:34:17;102097.75;;;26.73;29.75
78613;BME280;67933;51.060;3.638;2023-06-26T12:36:47;102110.91;;;27.19;29.26
78613;BME280;67933;51.060;3.638;2023-06-26T12:39:19;102088.75;;;28.68;28.53
78613;BME280;67933;51.060;3.638;2023-06-26T12:41:46;102086.81;;;27.65;29.27
78613;BME280;67933;51.060;3.638;2023-06-26T12:44:30;102105.34;;;26.27;31.17
78613;BME280;67933;51.060;3.638;2023-06-26T12:47:00;102099.25;;;25.54;33.43
78613;BME280;67933;51.060;3.638;2023-06-26T12:49:50;102102.19;;;25.43;32.64
78613;BME280;67933;51.060;3.638;2023-06-26T12:52:17;102099.25;;;25.54;33.08
78613;BME280;67933;51.060;3.638;2023-06-26T12:54:44;102103.91;;;26.75;32.34
78613;BME280;67933;51.060;3.638;2023-06-26T12:57:10;102104.56;;;27.61;30.50
78613;BME280;67933;51.060;3.638;2023-06-26T12:59:38;102109.72;;;26.80;30.93
78613;BME280;67933;51.060;3.638;2023-06-26T13:02:04;102119.03;;;26.69;29.94